createdAt,value
2017-01-16T00:00:38.512Z,954.4
2017-01-16T00:01:38.527Z,954.42
2017-01-16T00:02:38.532Z,954.38
2017-01-16T00:03:38.591Z,954.43
2017-01-16T00:04:38.553Z,954.4
2017-01-16T00:05:38.562Z,954.38
2017-01-16T00:06:38.574Z,954.36
2017-01-16T00:07:38.584Z,954.37
2017-01-16T00:08:38.595Z,954.39
2017-01-16T00:09:38.606Z,954.38
2017-01-16T00:10:38.620Z,954.34
2017-01-16T00:11:38.627Z,954.36
2017-01-16T00:12:38.639Z,954.36
2017-01-16T00:13:38.649Z,954.4
2017-01-16T00:14:38.658Z,954.34
2017-01-16T00:15:38.671Z,954.34
2017-01-16T00:16:38.681Z,954.34
2017-01-16T00:17:38.692Z,954.33
2017-01-16T00:18:38.702Z,954.3
2017-01-16T00:19:38.713Z,954.31
2017-01-16T00:20:38.723Z,954.31
2017-01-16T00:21:38.734Z,954.3
2017-01-16T00:22:38.745Z,954.35
2017-01-16T00:23:38.757Z,954.32
2017-01-16T00:24:38.767Z,954.33
2017-01-16T00:25:38.777Z,954.29
2017-01-16T00:26:38.787Z,954.3
2017-01-16T00:27:38.799Z,954.34
2017-01-16T00:28:38.811Z,954.26
2017-01-16T00:29:38.819Z,954.31
2017-01-16T00:30:38.831Z,954.3
2017-01-16T00:31:38.842Z,954.29
2017-01-16T00:32:38.852Z,954.24
2017-01-16T00:33:38.862Z,954.26
2017-01-16T00:34:38.873Z,954.25
2017-01-16T00:35:38.888Z,954.26
2017-01-16T00:36:38.895Z,954.28
2017-01-16T00:37:38.906Z,954.26
2017-01-16T00:38:38.916Z,954.3
2017-01-16T00:39:38.927Z,954.25
2017-01-16T00:40:38.937Z,954.29
2017-01-16T00:41:38.948Z,954.27
2017-01-16T00:42:38.958Z,954.25
2017-01-16T00:43:38.969Z,954.23
2017-01-16T00:44:38.980Z,954.24
2017-01-16T00:45:38.991Z,954.18
2017-01-16T00:46:39.002Z,954.21
2017-01-16T00:47:39.012Z,954.2
2017-01-16T00:48:39.023Z,954.21
2017-01-16T00:49:39.033Z,954.17
2017-01-16T00:50:39.045Z,954.2
2017-01-16T00:51:39.054Z,954.23
2017-01-16T00:52:39.065Z,954.22
2017-01-16T00:53:39.076Z,954.22
2017-01-16T00:54:39.087Z,954.23
2017-01-16T00:55:39.098Z,954.25
2017-01-16T00:56:39.108Z,954.23
2017-01-16T00:57:39.120Z,954.21
2017-01-16T00:58:39.131Z,954.25
2017-01-16T00:59:39.140Z,954.2
2017-01-16T01:00:39.152Z,954.2
2017-01-16T01:01:39.165Z,954.23
2017-01-16T01:02:39.173Z,954.23
2017-01-16T01:03:39.184Z,954.2
2017-01-16T01:04:39.195Z,954.18
2017-01-16T01:05:39.263Z,954.16
2017-01-16T01:06:39.216Z,954.15
2017-01-16T01:07:39.227Z,954.17
2017-01-16T01:08:39.237Z,954.18
2017-01-16T01:09:39.247Z,954.15
2017-01-16T01:10:39.309Z,954.21
2017-01-16T01:11:39.270Z,954.2
2017-01-16T01:12:39.281Z,954.2
2017-01-16T01:13:39.290Z,954.2
2017-01-16T01:14:39.301Z,954.22
2017-01-16T01:15:39.362Z,954.21
2017-01-16T01:16:39.322Z,954.23
2017-01-16T01:17:39.333Z,954.22
2017-01-16T01:18:39.344Z,954.18
2017-01-16T01:19:39.355Z,954.28
2017-01-16T01:20:39.365Z,954.25
2017-01-16T01:21:39.376Z,954.23
2017-01-16T01:22:39.388Z,954.24
2017-01-16T01:23:39.398Z,954.24
2017-01-16T01:24:39.408Z,954.26
2017-01-16T01:25:39.419Z,954.27
2017-01-16T01:26:39.429Z,954.24
2017-01-16T01:27:39.438Z,954.23
2017-01-16T01:28:39.450Z,954.26
2017-01-16T01:29:39.461Z,954.27
2017-01-16T01:30:39.473Z,954.27
2017-01-16T01:31:39.532Z,954.26
2017-01-16T01:32:39.494Z,954.28
2017-01-16T01:33:39.527Z,954.29
2017-01-16T01:34:39.515Z,954.32
2017-01-16T01:35:39.524Z,954.31
2017-01-16T01:36:39.535Z,954.26
2017-01-16T01:37:39.596Z,954.28
2017-01-16T01:38:39.557Z,954.28
2017-01-16T01:39:39.567Z,954.28
2017-01-16T01:40:39.589Z,954.25
2017-01-16T01:41:39.589Z,954.26
2017-01-16T01:42:39.650Z,954.24
2017-01-16T01:43:39.610Z,954.21
2017-01-16T01:44:39.620Z,954.21
2017-01-16T01:45:39.631Z,954.23
2017-01-16T01:46:39.640Z,954.25
2017-01-16T01:47:39.655Z,954.27
2017-01-16T01:48:39.664Z,954.26
2017-01-16T01:49:39.674Z,954.26
2017-01-16T01:50:39.685Z,954.24
2017-01-16T01:51:39.696Z,954.26
2017-01-16T01:52:39.707Z,954.2
2017-01-16T01:53:39.717Z,954.28
2017-01-16T01:54:39.734Z,954.25
2017-01-16T01:55:39.739Z,954.24
2017-01-16T01:56:39.749Z,954.25
2017-01-16T01:57:39.760Z,954.26
2017-01-16T01:58:39.771Z,954.23
2017-01-16T01:59:39.781Z,954.21
2017-01-16T02:00:39.792Z,954.22
2017-01-16T02:01:39.803Z,954.21
2017-01-16T02:02:39.814Z,954.19
2017-01-16T02:03:39.825Z,954.21
2017-01-16T02:04:39.835Z,954.22
2017-01-16T02:05:39.846Z,954.21
2017-01-16T02:06:39.858Z,954.23
2017-01-16T02:07:39.868Z,954.2
2017-01-16T02:08:39.877Z,954.21
2017-01-16T02:09:39.889Z,954.21
2017-01-16T02:10:39.900Z,954.21
2017-01-16T02:11:39.910Z,954.19
2017-01-16T02:12:39.922Z,954.15
2017-01-16T02:13:39.932Z,954.14
2017-01-16T02:14:39.943Z,954.12
2017-01-16T02:15:39.955Z,954.13
2017-01-16T02:16:39.964Z,954.12
2017-01-16T02:17:39.976Z,954.09
2017-01-16T02:18:39.987Z,954.12
2017-01-16T02:19:39.998Z,954.08
2017-01-16T02:20:40.008Z,954.06
2017-01-16T02:21:40.018Z,954.09
2017-01-16T02:22:40.029Z,954.08
2017-01-16T02:23:40.040Z,954.07
2017-01-16T02:24:40.051Z,954.1
2017-01-16T02:25:40.062Z,954.11
2017-01-16T02:26:40.072Z,954.06
2017-01-16T02:27:40.083Z,953.99
2017-01-16T02:28:40.093Z,954.03
2017-01-16T02:29:40.105Z,954
2017-01-16T02:30:40.116Z,954
2017-01-16T02:31:40.127Z,953.95
2017-01-16T02:32:40.137Z,953.98
2017-01-16T02:33:40.151Z,953.95
2017-01-16T02:34:40.160Z,953.98
2017-01-16T02:35:40.171Z,953.95
2017-01-16T02:36:40.181Z,953.99
2017-01-16T02:37:40.192Z,953.95
2017-01-16T02:38:40.202Z,953.97
2017-01-16T02:39:40.213Z,953.96
2017-01-16T02:40:40.224Z,953.94
2017-01-16T02:41:40.235Z,953.97
2017-01-16T02:42:40.245Z,953.96
2017-01-16T02:43:40.256Z,953.93
2017-01-16T02:44:40.267Z,953.94
2017-01-16T02:45:40.278Z,953.97
2017-01-16T02:46:40.289Z,953.96
2017-01-16T02:47:40.298Z,954.02
2017-01-16T02:48:40.311Z,954.01
2017-01-16T02:49:40.322Z,953.99
2017-01-16T02:50:40.332Z,953.92
2017-01-16T02:51:40.391Z,953.98
2017-01-16T02:52:40.355Z,953.97
2017-01-16T02:53:40.365Z,953.97
2017-01-16T02:54:40.376Z,953.99
2017-01-16T02:55:40.385Z,953.99
2017-01-16T02:56:40.397Z,954
2017-01-16T02:57:40.408Z,953.95
2017-01-16T02:58:40.419Z,953.96
2017-01-16T02:59:40.477Z,953.97
2017-01-16T03:00:40.441Z,953.96
2017-01-16T03:01:40.451Z,953.97
2017-01-16T03:02:40.460Z,953.95
2017-01-16T03:03:40.470Z,953.94
2017-01-16T03:04:40.483Z,953.98
2017-01-16T03:05:40.494Z,953.96
2017-01-16T03:06:40.504Z,953.95
2017-01-16T03:07:40.514Z,953.95
2017-01-16T03:08:40.527Z,953.96
2017-01-16T03:09:40.537Z,953.93
2017-01-16T03:10:40.597Z,953.98
2017-01-16T03:11:40.557Z,953.99
2017-01-16T03:12:40.589Z,953.95
2017-01-16T03:13:40.578Z,953.93
2017-01-16T03:14:40.588Z,953.95
2017-01-16T03:15:40.651Z,953.96
2017-01-16T03:16:40.612Z,953.94
2017-01-16T03:17:40.621Z,953.98
2017-01-16T03:18:40.631Z,953.95
2017-01-16T03:19:40.653Z,953.92
2017-01-16T03:20:40.654Z,953.9
2017-01-16T03:21:40.664Z,953.89
2017-01-16T03:22:40.675Z,953.93
2017-01-16T03:23:40.685Z,953.92
2017-01-16T03:24:40.697Z,953.91
2017-01-16T03:25:40.757Z,953.94
2017-01-16T03:26:40.719Z,953.89
2017-01-16T03:27:40.729Z,953.9
2017-01-16T03:28:40.739Z,953.89
2017-01-16T03:29:40.751Z,953.95
2017-01-16T03:30:40.811Z,953.89
2017-01-16T03:31:40.771Z,953.91
2017-01-16T03:32:40.782Z,953.87
2017-01-16T03:33:40.799Z,953.89
2017-01-16T03:34:40.804Z,953.89
2017-01-16T03:35:40.863Z,953.92
2017-01-16T03:36:40.824Z,953.9
2017-01-16T03:37:40.836Z,954
2017-01-16T03:38:40.846Z,953.96
2017-01-16T03:39:40.855Z,953.96
2017-01-16T03:40:40.868Z,953.97
2017-01-16T03:41:40.878Z,953.98
2017-01-16T03:42:40.890Z,953.9
2017-01-16T03:43:40.900Z,953.94
2017-01-16T03:44:40.911Z,953.92
2017-01-16T03:45:40.921Z,953.94
2017-01-16T03:46:40.930Z,953.93
2017-01-16T03:47:40.942Z,953.95
2017-01-16T03:48:40.952Z,953.93
2017-01-16T03:49:40.963Z,953.92
2017-01-16T03:50:40.974Z,953.91
2017-01-16T03:51:40.985Z,953.91
2017-01-16T03:52:40.996Z,953.9
2017-01-16T03:53:41.007Z,953.92
2017-01-16T03:54:41.017Z,953.88
2017-01-16T03:55:41.028Z,953.94
2017-01-16T03:56:41.039Z,953.91
2017-01-16T03:57:41.048Z,953.94
2017-01-16T03:58:41.062Z,953.91
2017-01-16T03:59:41.071Z,953.93
2017-01-16T04:00:41.081Z,953.9
2017-01-16T04:01:41.092Z,953.93
2017-01-16T04:02:41.102Z,953.94
2017-01-16T04:03:41.113Z,953.92
2017-01-16T04:04:41.124Z,953.96
2017-01-16T04:05:41.135Z,953.98
2017-01-16T04:06:41.146Z,953.98
2017-01-16T04:07:41.158Z,954.01
2017-01-16T04:08:41.167Z,953.98
2017-01-16T04:09:41.177Z,954
2017-01-16T04:10:41.189Z,953.94
2017-01-16T04:11:41.199Z,953.98
2017-01-16T04:12:41.209Z,953.96
2017-01-16T04:13:41.220Z,953.96
2017-01-16T04:14:41.231Z,953.98
2017-01-16T04:15:41.241Z,953.98
2017-01-16T04:16:41.250Z,953.97
2017-01-16T04:17:41.262Z,953.97
2017-01-16T04:18:41.272Z,953.99
2017-01-16T04:19:41.283Z,953.96
2017-01-16T04:20:41.292Z,953.98
2017-01-16T04:21:41.303Z,953.97
2017-01-16T04:22:41.314Z,953.96
2017-01-16T04:23:41.325Z,953.99
2017-01-16T04:24:41.386Z,953.95
2017-01-16T04:25:41.345Z,953.96
2017-01-16T04:26:41.360Z,953.96
2017-01-16T04:27:41.365Z,953.95
2017-01-16T04:28:41.380Z,953.99
2017-01-16T04:29:41.388Z,953.96
2017-01-16T04:30:41.399Z,953.97
2017-01-16T04:31:41.408Z,953.96
2017-01-16T04:32:41.419Z,953.94
2017-01-16T04:33:41.430Z,953.98
2017-01-16T04:34:41.440Z,953.98
2017-01-16T04:35:41.450Z,953.91
2017-01-16T04:36:41.461Z,953.93
2017-01-16T04:37:41.471Z,953.91
2017-01-16T04:38:41.481Z,953.95
2017-01-16T04:39:41.492Z,953.95
2017-01-16T04:40:41.551Z,953.97
2017-01-16T04:41:41.512Z,953.96
2017-01-16T04:42:41.523Z,953.97
2017-01-16T04:43:41.534Z,953.99
2017-01-16T04:44:41.544Z,954.01
2017-01-16T04:45:41.554Z,954
2017-01-16T04:46:41.565Z,954.02
2017-01-16T04:47:41.575Z,954.01
2017-01-16T04:48:41.583Z,954.04
2017-01-16T04:49:41.595Z,954.05
2017-01-16T04:50:41.605Z,954.05
2017-01-16T04:51:41.617Z,954.05
2017-01-16T04:52:41.627Z,954.02
2017-01-16T04:53:41.639Z,954.05
2017-01-16T04:54:41.648Z,954.02
2017-01-16T04:55:41.657Z,954.02
2017-01-16T04:56:41.668Z,954.04
2017-01-16T04:57:41.679Z,954.01
2017-01-16T04:58:41.690Z,954.05
2017-01-16T04:59:41.699Z,954.02
2017-01-16T05:00:41.710Z,954.05
2017-01-16T05:01:41.721Z,953.99
2017-01-16T05:02:41.731Z,954.02
2017-01-16T05:03:41.741Z,954.02
2017-01-16T05:04:41.751Z,954.01
2017-01-16T05:05:41.763Z,954.01
2017-01-16T05:06:41.773Z,954.04
2017-01-16T05:07:41.783Z,954.07
2017-01-16T05:08:41.795Z,954.09
2017-01-16T05:09:41.804Z,954.05
2017-01-16T05:10:41.813Z,954.08
2017-01-16T05:11:41.824Z,954.06
2017-01-16T05:12:41.853Z,954.07
2017-01-16T05:13:41.848Z,954.06
2017-01-16T05:14:41.855Z,954.06
2017-01-16T05:15:41.874Z,954.09
2017-01-16T05:16:41.881Z,954.07
2017-01-16T05:17:41.889Z,954.08
2017-01-16T05:18:41.899Z,954.06
2017-01-16T05:19:41.919Z,954.09
2017-01-16T05:20:41.920Z,954.07
2017-01-16T05:21:41.930Z,954.07
2017-01-16T05:22:41.940Z,954.11
2017-01-16T05:23:41.951Z,954.11
2017-01-16T05:24:41.962Z,954.14
2017-01-16T05:25:41.972Z,954.15
2017-01-16T05:26:42.032Z,954.14
2017-01-16T05:27:41.993Z,954.18
2017-01-16T05:28:42.004Z,954.16
2017-01-16T05:29:42.014Z,954.17
2017-01-16T05:30:42.024Z,954.18
2017-01-16T05:31:42.085Z,954.16
2017-01-16T05:32:42.045Z,954.19
2017-01-16T05:33:42.056Z,954.2
2017-01-16T05:34:42.066Z,954.23
2017-01-16T05:35:42.079Z,954.23
2017-01-16T05:36:42.087Z,954.26
2017-01-16T05:37:42.097Z,954.28
2017-01-16T05:38:42.110Z,954.29
2017-01-16T05:39:42.118Z,954.26
2017-01-16T05:40:42.134Z,954.31
2017-01-16T05:41:42.140Z,954.26
2017-01-16T05:42:42.153Z,954.29
2017-01-16T05:43:42.161Z,954.29
2017-01-16T05:44:42.174Z,954.28
2017-01-16T05:45:42.183Z,954.23
2017-01-16T05:46:42.194Z,954.26
2017-01-16T05:47:42.204Z,954.27
2017-01-16T05:48:42.215Z,954.29
2017-01-16T05:49:42.226Z,954.3
2017-01-16T05:50:42.236Z,954.32
2017-01-16T05:51:42.246Z,954.31
2017-01-16T05:52:42.258Z,954.34
2017-01-16T05:53:42.268Z,954.39
2017-01-16T05:54:42.278Z,954.33
2017-01-16T05:55:42.289Z,954.36
2017-01-16T05:56:42.300Z,954.41
2017-01-16T05:57:42.311Z,954.39
2017-01-16T05:58:42.321Z,954.41
2017-01-16T05:59:42.331Z,954.43
2017-01-16T06:00:42.343Z,954.4
2017-01-16T06:01:42.352Z,954.37
2017-01-16T06:02:42.364Z,954.42
2017-01-16T06:03:42.376Z,954.42
2017-01-16T06:04:42.385Z,954.42
2017-01-16T06:05:42.396Z,954.41
2017-01-16T06:06:42.406Z,954.42
2017-01-16T06:07:42.417Z,954.36
2017-01-16T06:08:42.427Z,954.39
2017-01-16T06:09:42.438Z,954.41
2017-01-16T06:10:42.451Z,954.34
2017-01-16T06:11:42.460Z,954.36
2017-01-16T06:12:42.468Z,954.42
2017-01-16T06:13:42.481Z,954.42
2017-01-16T06:14:42.492Z,954.4
2017-01-16T06:15:42.502Z,954.41
2017-01-16T06:16:42.512Z,954.45
2017-01-16T06:17:42.523Z,954.49
2017-01-16T06:18:42.534Z,954.48
2017-01-16T06:19:42.546Z,954.49
2017-01-16T06:20:42.555Z,954.51
2017-01-16T06:21:42.566Z,954.5
2017-01-16T06:22:42.577Z,954.55
2017-01-16T06:23:42.586Z,954.55
2017-01-16T06:24:42.697Z,954.58
2017-01-16T06:25:42.609Z,954.56
2017-01-16T06:26:42.619Z,954.58
2017-01-16T06:27:42.630Z,954.63
2017-01-16T06:28:42.640Z,954.65
2017-01-16T06:29:42.701Z,954.66
2017-01-16T06:30:42.662Z,954.67
2017-01-16T06:31:42.671Z,954.68
2017-01-16T06:32:42.683Z,954.67
2017-01-16T06:33:42.693Z,954.67
2017-01-16T06:34:42.754Z,954.7
2017-01-16T06:35:42.715Z,954.7
2017-01-16T06:36:42.725Z,954.7
2017-01-16T06:37:42.737Z,954.73
2017-01-16T06:38:42.744Z,954.72
2017-01-16T06:39:42.805Z,954.72
2017-01-16T06:40:42.766Z,954.75
2017-01-16T06:41:42.777Z,954.71
2017-01-16T06:42:42.791Z,954.71
2017-01-16T06:43:42.799Z,954.73
2017-01-16T06:44:42.811Z,954.75
2017-01-16T06:45:42.823Z,954.76
2017-01-16T06:46:42.831Z,954.73
2017-01-16T06:47:42.842Z,954.74
2017-01-16T06:48:42.853Z,954.79
2017-01-16T06:49:42.913Z,954.8
2017-01-16T06:50:42.874Z,954.83
2017-01-16T06:51:42.885Z,954.78
2017-01-16T06:52:42.895Z,954.78
2017-01-16T06:53:42.906Z,954.81
2017-01-16T06:54:42.966Z,954.8
2017-01-16T06:55:42.926Z,954.8
2017-01-16T06:56:42.937Z,954.88
2017-01-16T06:57:42.949Z,954.9
2017-01-16T06:58:42.959Z,954.84
2017-01-16T06:59:42.971Z,954.86
2017-01-16T07:00:42.980Z,954.86
2017-01-16T07:01:42.994Z,954.91
2017-01-16T07:02:43.003Z,954.94
2017-01-16T07:03:43.014Z,954.93
2017-01-16T07:04:43.024Z,954.93
2017-01-16T07:05:43.048Z,954.94
2017-01-16T07:06:43.045Z,954.93
2017-01-16T07:07:43.055Z,954.9
2017-01-16T07:08:43.070Z,954.97
2017-01-16T07:09:43.077Z,954.95
2017-01-16T07:10:43.088Z,954.98
2017-01-16T07:11:43.097Z,954.99
2017-01-16T07:12:43.113Z,954.99
2017-01-16T07:13:43.120Z,955.01
2017-01-16T07:14:43.129Z,955.02
2017-01-16T07:15:43.140Z,955
2017-01-16T07:16:43.150Z,955.06
2017-01-16T07:17:43.163Z,955.08
2017-01-16T07:18:43.172Z,955.05
2017-01-16T07:19:43.183Z,955.05
2017-01-16T07:20:43.195Z,955.07
2017-01-16T07:21:43.205Z,955.08
2017-01-16T07:22:43.215Z,955.09
2017-01-16T07:23:43.225Z,955.1
2017-01-16T07:24:43.235Z,955.09
2017-01-16T07:25:43.245Z,955.11
2017-01-16T07:26:43.256Z,955.1
2017-01-16T07:27:43.317Z,955.1
2017-01-16T07:28:43.277Z,955.14
2017-01-16T07:29:43.287Z,955.14
2017-01-16T07:30:43.297Z,955.1
2017-01-16T07:31:43.309Z,955.1
2017-01-16T07:32:43.318Z,955.11
2017-01-16T07:33:43.329Z,955.12
2017-01-16T07:34:43.340Z,955.13
2017-01-16T07:35:43.350Z,955.17
2017-01-16T07:36:43.360Z,955.13
2017-01-16T07:37:43.371Z,955.19
2017-01-16T07:38:43.382Z,955.18
2017-01-16T07:39:43.391Z,955.17
2017-01-16T07:40:43.402Z,955.22
2017-01-16T07:41:43.413Z,955.22
2017-01-16T07:42:43.524Z,955.19
2017-01-16T07:43:43.434Z,955.2
2017-01-16T07:44:43.443Z,955.17
2017-01-16T07:45:43.454Z,955.22
2017-01-16T07:46:43.465Z,955.22
2017-01-16T07:47:43.475Z,955.22
2017-01-16T07:48:43.534Z,955.2
2017-01-16T07:49:43.496Z,955.2
2017-01-16T07:50:43.509Z,955.25
2017-01-16T07:51:43.517Z,955.29
2017-01-16T07:52:43.526Z,955.29
2017-01-16T07:53:43.588Z,955.29
2017-01-16T07:54:43.550Z,955.27
2017-01-16T07:55:43.558Z,955.33
2017-01-16T07:56:43.570Z,955.37
2017-01-16T07:57:43.581Z,955.37
2017-01-16T07:58:43.689Z,955.39
2017-01-16T07:59:43.600Z,955.34
2017-01-16T08:00:43.612Z,955.42
2017-01-16T08:01:43.623Z,955.4
2017-01-16T08:02:43.631Z,955.4
2017-01-16T08:03:43.642Z,955.4
2017-01-16T08:04:43.653Z,955.39
2017-01-16T08:05:43.665Z,955.38
2017-01-16T08:06:43.673Z,955.39
2017-01-16T08:07:43.684Z,955.43
2017-01-16T08:08:43.694Z,955.39
2017-01-16T08:09:43.704Z,955.4
2017-01-16T08:10:43.716Z,955.4
2017-01-16T08:11:43.725Z,955.45
2017-01-16T08:12:43.737Z,955.45
2017-01-16T08:13:43.746Z,955.43
2017-01-16T08:14:43.756Z,955.45
2017-01-16T08:15:43.767Z,955.44
2017-01-16T08:16:43.778Z,955.45
2017-01-16T08:17:43.787Z,955.44
2017-01-16T08:18:43.798Z,955.45
2017-01-16T08:19:43.809Z,955.44
2017-01-16T08:20:43.818Z,955.49
2017-01-16T08:21:43.830Z,955.46
2017-01-16T08:22:43.840Z,955.46
2017-01-16T08:23:43.851Z,955.45
2017-01-16T08:24:43.861Z,955.41
2017-01-16T08:25:43.873Z,955.43
2017-01-16T08:26:43.883Z,955.51
2017-01-16T08:27:43.894Z,955.44
2017-01-16T08:28:43.904Z,955.46
2017-01-16T08:29:43.914Z,955.47
2017-01-16T08:30:43.925Z,955.44
2017-01-16T08:31:43.935Z,955.5
2017-01-16T08:32:43.945Z,955.49
2017-01-16T08:33:43.956Z,955.54
2017-01-16T08:34:43.967Z,955.51
2017-01-16T08:35:43.977Z,955.53
2017-01-16T08:36:43.988Z,955.52
2017-01-16T08:37:44.001Z,955.52
2017-01-16T08:38:44.010Z,955.55
2017-01-16T08:39:44.019Z,955.53
2017-01-16T08:40:44.030Z,955.53
2017-01-16T08:41:44.048Z,955.46
2017-01-16T08:42:44.052Z,955.53
2017-01-16T08:43:44.062Z,955.53
2017-01-16T08:44:44.074Z,955.52
2017-01-16T08:45:44.095Z,955.51
2017-01-16T08:46:44.197Z,955.53
2017-01-16T08:47:44.106Z,955.53
2017-01-16T08:48:44.135Z,955.53
2017-01-16T08:49:44.127Z,955.53
2017-01-16T08:50:44.139Z,955.5
2017-01-16T08:51:44.208Z,955.5
2017-01-16T08:52:44.161Z,955.5
2017-01-16T08:53:44.169Z,955.54
2017-01-16T08:54:44.183Z,955.51
2017-01-16T08:55:44.191Z,955.51
2017-01-16T08:56:44.203Z,955.51
2017-01-16T08:57:44.213Z,955.51
2017-01-16T08:58:44.240Z,955.53
2017-01-16T08:59:44.235Z,955.49
2017-01-16T09:00:44.256Z,955.51
2017-01-16T09:01:44.255Z,955.51
2017-01-16T09:02:44.317Z,955.47
2017-01-16T09:03:44.278Z,955.5
2017-01-16T09:04:44.288Z,955.5
2017-01-16T09:05:44.303Z,955.54
2017-01-16T09:06:44.310Z,955.54
2017-01-16T09:07:44.322Z,955.53
2017-01-16T09:08:44.332Z,955.52
2017-01-16T09:09:44.344Z,955.54
2017-01-16T09:10:44.354Z,955.54
2017-01-16T09:11:44.365Z,955.51
2017-01-16T09:12:44.375Z,955.51
2017-01-16T09:13:44.389Z,955.5
2017-01-16T09:14:44.401Z,955.52
2017-01-16T09:15:44.408Z,955.56
2017-01-16T09:16:44.419Z,955.56
2017-01-16T09:17:44.429Z,955.5
2017-01-16T09:18:44.492Z,955.54
2017-01-16T09:19:44.451Z,955.52
2017-01-16T09:20:44.463Z,955.54
2017-01-16T09:21:44.474Z,955.56
2017-01-16T09:22:44.483Z,955.59
2017-01-16T09:23:44.546Z,955.57
2017-01-16T09:24:44.506Z,955.58
2017-01-16T09:25:44.518Z,955.57
2017-01-16T09:26:44.529Z,955.58
2017-01-16T09:27:44.541Z,955.57
2017-01-16T09:28:44.601Z,955.6
2017-01-16T09:29:44.562Z,955.59
2017-01-16T09:30:44.573Z,955.58
2017-01-16T09:31:44.584Z,955.59
2017-01-16T09:32:44.596Z,955.61
2017-01-16T09:33:44.707Z,955.6
2017-01-16T09:34:44.618Z,955.59
2017-01-16T09:35:44.630Z,955.62
2017-01-16T09:36:44.641Z,955.63
2017-01-16T09:37:44.655Z,955.56
2017-01-16T09:38:44.673Z,955.64
2017-01-16T09:39:44.675Z,955.64
2017-01-16T09:40:44.687Z,955.62
2017-01-16T09:41:44.708Z,955.64
2017-01-16T09:42:44.708Z,955.67
2017-01-16T09:43:44.720Z,955.65
2017-01-16T09:44:44.731Z,955.66
2017-01-16T09:45:44.741Z,955.69
2017-01-16T09:46:44.753Z,955.66
2017-01-16T09:47:44.765Z,955.65
2017-01-16T09:48:44.775Z,955.72
2017-01-16T09:49:44.790Z,955.67
2017-01-16T09:50:44.900Z,955.7
2017-01-16T09:51:44.811Z,955.67
2017-01-16T09:52:44.820Z,955.75
2017-01-16T09:53:44.833Z,955.73
2017-01-16T09:54:44.845Z,955.71
2017-01-16T09:55:44.854Z,955.7
2017-01-16T09:56:44.867Z,955.73
2017-01-16T09:57:44.878Z,955.7
2017-01-16T09:58:44.889Z,955.72
2017-01-16T09:59:44.899Z,955.7
2017-01-16T10:00:44.912Z,955.72
2017-01-16T10:01:44.923Z,955.72
2017-01-16T10:02:44.936Z,955.71
2017-01-16T10:03:44.947Z,955.7
2017-01-16T10:04:44.961Z,955.7
2017-01-16T10:05:44.968Z,955.7
2017-01-16T10:06:44.984Z,955.69
2017-01-16T10:07:44.993Z,955.66
2017-01-16T10:08:45.002Z,955.67
2017-01-16T10:09:45.115Z,955.69
2017-01-16T10:10:45.026Z,955.67
2017-01-16T10:11:45.035Z,955.69
2017-01-16T10:12:45.047Z,955.68
2017-01-16T10:13:45.057Z,955.67
2017-01-16T10:14:45.068Z,955.67
2017-01-16T10:15:45.081Z,955.67
2017-01-16T10:16:45.115Z,955.68
2017-01-16T10:17:45.102Z,955.65
2017-01-16T10:18:45.114Z,955.65
2017-01-16T10:19:45.125Z,955.67
2017-01-16T10:20:45.139Z,955.7
2017-01-16T10:21:45.148Z,955.63
2017-01-16T10:22:45.159Z,955.64
2017-01-16T10:23:45.181Z,955.68
2017-01-16T10:24:45.181Z,955.66
2017-01-16T10:25:45.195Z,955.66
2017-01-16T10:26:45.206Z,955.64
2017-01-16T10:27:45.216Z,955.65
2017-01-16T10:28:45.227Z,955.61
2017-01-16T10:29:45.250Z,955.61
2017-01-16T10:30:45.251Z,955.63
2017-01-16T10:31:45.287Z,955.59
2017-01-16T10:32:45.270Z,955.63
2017-01-16T10:33:45.295Z,955.61
2017-01-16T10:34:45.344Z,955.6
2017-01-16T10:35:45.305Z,955.6
2017-01-16T10:36:45.316Z,955.6
2017-01-16T10:37:45.327Z,955.63
2017-01-16T10:38:45.337Z,955.57
2017-01-16T10:39:45.351Z,955.59
2017-01-16T10:40:45.359Z,955.63
2017-01-16T10:41:45.372Z,955.59
2017-01-16T10:42:45.383Z,955.59
2017-01-16T10:43:45.395Z,955.61
2017-01-16T10:44:45.410Z,955.56
2017-01-16T10:45:45.416Z,955.61
2017-01-16T10:46:45.426Z,955.63
2017-01-16T10:47:45.437Z,955.62
2017-01-16T10:48:45.449Z,955.58
2017-01-16T10:49:45.460Z,955.59
2017-01-16T10:50:45.472Z,955.56
2017-01-16T10:51:45.482Z,955.54
2017-01-16T10:52:45.492Z,955.56
2017-01-16T10:53:45.505Z,955.56
2017-01-16T10:54:45.516Z,955.54
2017-01-16T10:55:45.526Z,955.54
2017-01-16T10:56:45.535Z,955.59
2017-01-16T10:57:45.546Z,955.53
2017-01-16T10:58:45.558Z,955.56
2017-01-16T10:59:45.569Z,955.56
2017-01-16T11:00:45.581Z,955.59
2017-01-16T11:01:45.590Z,955.59
2017-01-16T11:02:45.601Z,955.58
2017-01-16T11:03:45.613Z,955.57
2017-01-16T11:04:45.623Z,955.54
2017-01-16T11:05:45.683Z,955.52
2017-01-16T11:06:45.644Z,955.49
2017-01-16T11:07:45.666Z,955.51
2017-01-16T11:08:45.666Z,955.49
2017-01-16T11:09:45.677Z,955.55
2017-01-16T11:10:45.737Z,955.52
2017-01-16T11:11:45.698Z,955.49
2017-01-16T11:12:45.709Z,955.46
2017-01-16T11:13:45.721Z,955.5
2017-01-16T11:14:45.732Z,955.51
2017-01-16T11:15:45.744Z,955.49
2017-01-16T11:16:45.754Z,955.53
2017-01-16T11:17:45.765Z,955.5
2017-01-16T11:18:45.775Z,955.5
2017-01-16T11:19:45.786Z,955.52
2017-01-16T11:20:45.798Z,955.52
2017-01-16T11:21:45.810Z,955.54
2017-01-16T11:22:45.821Z,955.52
2017-01-16T11:23:45.831Z,955.47
2017-01-16T11:24:45.842Z,955.49
2017-01-16T11:25:45.855Z,955.52
2017-01-16T11:26:45.863Z,955.51
2017-01-16T11:27:45.975Z,955.46
2017-01-16T11:28:45.887Z,955.49
2017-01-16T11:29:45.898Z,955.46
2017-01-16T11:30:45.908Z,955.51
2017-01-16T11:31:45.920Z,955.5
2017-01-16T11:32:45.931Z,955.53
2017-01-16T11:33:45.942Z,955.49
2017-01-16T11:34:45.954Z,955.49
2017-01-16T11:35:45.970Z,955.49
2017-01-16T11:36:45.982Z,955.49
2017-01-16T11:37:45.987Z,955.52
2017-01-16T11:38:45.998Z,955.54
2017-01-16T11:39:46.617Z,955.51
2017-01-16T11:40:46.021Z,955.5
2017-01-16T11:41:46.051Z,955.51
2017-01-16T11:42:46.042Z,955.47
2017-01-16T11:43:46.054Z,955.43
2017-01-16T11:44:46.166Z,955.46
2017-01-16T11:45:46.075Z,955.46
2017-01-16T11:46:46.087Z,955.47
2017-01-16T11:47:46.099Z,955.49
2017-01-16T11:48:46.115Z,955.47
2017-01-16T11:49:46.121Z,955.43
2017-01-16T11:50:46.132Z,955.49
2017-01-16T11:51:46.143Z,955.49
2017-01-16T11:52:46.154Z,955.46
2017-01-16T11:53:46.167Z,955.45
2017-01-16T11:54:46.228Z,955.46
2017-01-16T11:55:46.193Z,955.47
2017-01-16T11:56:46.198Z,955.42
2017-01-16T11:57:46.209Z,955.4
2017-01-16T11:58:46.222Z,955.42
2017-01-16T11:59:46.335Z,955.41
2017-01-16T12:00:46.246Z,955.41
2017-01-16T12:01:46.258Z,955.38
2017-01-16T12:02:46.269Z,955.42
2017-01-16T12:03:46.279Z,955.36
2017-01-16T12:04:46.292Z,955.39
2017-01-16T12:05:46.303Z,955.39
2017-01-16T12:06:46.314Z,955.41
2017-01-16T12:07:46.325Z,955.39
2017-01-16T12:08:46.336Z,955.41
2017-01-16T12:09:46.348Z,955.42
2017-01-16T12:10:46.358Z,955.39
2017-01-16T12:11:46.369Z,955.41
2017-01-16T12:12:46.382Z,955.38
2017-01-16T12:13:46.394Z,955.39
2017-01-16T12:14:46.404Z,955.38
2017-01-16T12:15:46.415Z,955.36
2017-01-16T12:16:46.428Z,955.33
2017-01-16T12:17:46.439Z,955.37
2017-01-16T12:18:46.450Z,955.38
2017-01-16T12:19:46.460Z,955.36
2017-01-16T12:20:46.473Z,955.36
2017-01-16T12:21:46.483Z,955.33
2017-01-16T12:22:46.495Z,955.36
2017-01-16T12:23:46.508Z,955.33
2017-01-16T12:24:46.519Z,955.36
2017-01-16T12:25:46.527Z,955.32
2017-01-16T12:26:46.541Z,955.33
2017-01-16T12:27:46.553Z,955.31
2017-01-16T12:28:46.565Z,955.34
2017-01-16T12:29:46.574Z,955.32
2017-01-16T12:30:46.585Z,955.32
2017-01-16T12:31:46.598Z,955.31